Latest Weather Observations for Mornington Island Airport

IDQ60801

Issued at 12:02 am EST Wednesday 28 January 2015 (issued every 30 minutes, with the page automatically refreshed every 10 minutes)

About weather observations | Map of weather stations | Latest weather observations for QLD | Other Formats
Station Details ID: 029182 Name: MORNINGTON ISLAND AIRPORT Lat: -16.66 Lon: 139.17 Height: 9.0 m
Data from the previous 72 hours. | See also: Recent months at Mornington Island Airport
Date/Time
EST
Temp
°C
App
Temp
°C
Dew
Point
Rel
Hum
%
Delta-T
°C
Wind Press
QNH
hPa
Press
MSL
hPa
Rain
since 9 am
mm
Dir
 
Spd
km/h
Gust
km/h
Spd
kts
Gust
kts
27/11:30pm 28.0 32.3 24.2 80 2.6 N 9 11 5 6 1004.7 1004.6 0.0
27/11:00pm 27.8 32.3 24.0 80 2.6 NNW 7 9 4 5 1004.5 1004.4 0.0
27/10:30pm 27.8 32.1 24.2 81 2.5 NNW 9 11 5 6 1004.3 1004.2 0.0
27/10:00pm 28.0 32.1 24.0 79 2.8 N 9 9 5 5 1003.9 1003.8 0.0
27/09:30pm 28.2 32.5 24.2 79 2.8 NNW 9 11 5 6 1003.8 1003.7 0.0
27/09:00pm 28.3 32.3 23.7 76 3.2 N 9 11 5 6 1003.6 1003.5 0.0
27/08:30pm 29.0 32.7 23.2 71 4.0 N 9 11 5 6 1003.6 1003.5 0.0
27/08:00pm 29.3 33.4 23.3 70 4.1 NNW 7 9 4 5 1003.4 1003.3 0.0
27/07:30pm 30.0 33.8 22.7 65 5.0 NNW 7 9 4 5 1003.1 1003.0 0.0
27/07:00pm 30.8 34.4 22.1 59 5.9 WNW 6 7 3 4 1003.0 1002.9 0.0
27/06:30pm 31.2 34.7 22.2 58 6.1 W 7 9 4 5 1002.9 1002.8 0.0
27/06:00pm 31.9 35.3 22.0 55 6.7 W 7 9 4 5 1002.7 1002.6 0.0
27/05:30pm 31.6 34.6 22.0 56 6.5 W 9 11 5 6 1002.8 1002.7 0.0
27/05:00pm 31.5 34.8 22.5 59 6.2 W 9 11 5 6 1002.6 1002.5 0.0
27/04:30pm 31.7 35.0 23.2 60 5.9 WNW 11 15 6 8 1002.6 1002.5 0.0
27/04:00pm 31.9 35.0 22.9 59 6.2 WNW 11 13 6 7 1002.7 1002.6 0.0
27/03:30pm 31.7 34.8 23.5 62 5.7 W 13 17 7 9 1003.1 1003.0 0.0
27/03:00pm 31.4 34.9 23.5 63 5.5 WSW 11 17 6 9 1003.3 1003.2 0.0
27/02:30pm 31.9 34.7 23.7 62 5.7 WSW 15 22 8 12 1003.4 1003.3 0.0
27/02:00pm 31.8 35.3 22.8 59 6.2 ESE 9 13 5 7 1003.8 1003.7 0.0
27/01:30pm 31.8 36.2 24.4 65 5.2 ESE 9 13 5 7 1004.5 1004.4 0.0
27/01:00pm 31.3 35.4 23.9 64 5.2 SSE 9 15 5 8 1005.1 1005.0 0.0
27/12:30pm 31.3 35.4 23.9 64 5.1 SE 9 17 5 9 1005.4 1005.3 0.0
27/12:00pm 31.5 35.9 24.4 66 5.0 S 9 15 5 8 1005.9 1005.8 0.0
27/11:30am 30.9 34.8 24.3 68 4.6 ESE 11 17 6 9 1006.3 1006.2 0.0
27/11:00am 30.6 34.4 24.0 68 4.6 SE 11 17 6 9 1006.4 1006.3 0.0
27/10:30am 30.9 35.0 24.5 68 4.5 SE 11 17 6 9 1006.7 1006.6 0.0
27/10:00am 30.3 34.5 24.7 72 3.9 SE 11 15 6 8 1007.0 1006.9 0.0
27/09:30am 29.8 34.2 24.4 73 3.8 S 9 13 5 7 1006.8 1006.7 0.0
27/09:00am 29.4 34.0 24.7 76 3.3 SSE 9 17 5 9 1006.5 1006.4 20.0
27/08:30am 28.7 33.3 24.7 79 2.8 SSE 9 15 5 8 1006.1 1006.0 20.0
27/08:00am 27.6 32.6 24.8 85 2.0 SSE 7 11 4 6 1006.0 1005.9 20.0
27/07:30am 27.3 32.4 24.6 85 1.9 S 6 7 3 4 1005.7 1005.6 20.0
27/07:00am 27.2 32.2 24.5 85 1.9 S 6 9 3 5 1005.6 1005.5 20.0
27/06:30am 27.1 31.6 24.6 86 1.7 S 9 17 5 9 1005.3 1005.2 20.0
27/06:00am 27.1 31.5 23.8 82 2.3 SSE 7 11 4 6 1004.7 1004.6 20.0
27/05:30am 27.0 31.4 24.5 86 1.7 S 9 17 5 9 1004.9 1004.8 20.0
27/05:00am 26.4 32.0 23.5 84 2.0 CALM 0 4 0 2 1004.3 1004.2 20.0
27/04:30am 26.6 31.0 23.5 83 2.1 N 6 9 3 5 1004.0 1003.9 20.0
27/04:00am 26.7 30.8 23.2 81 2.4 NNW 7 9 4 5 1004.0 1003.9 20.0
27/03:30am 26.5 30.9 23.8 85 1.9 N 7 9 4 5 1004.1 1004.0 20.0
27/03:00am 26.5 32.3 24.0 86 1.7 CALM 0 0 0 0 1004.5 1004.4 20.0
27/02:30am 26.4 32.3 24.1 87 1.6 CALM 0 0 0 0 1004.9 1004.8 20.0
27/02:00am 26.7 32.8 24.4 87 1.6 CALM 0 0 0 0 1005.2 1005.1 20.0
27/01:30am 26.7 31.4 24.0 85 1.9 ENE 6 7 3 4 1005.5 1005.4 20.0
27/01:00am 27.0 30.4 24.1 84 2.0 E 13 17 7 9 1005.8 1005.7 20.0
27/12:30am 26.9 30.0 24.2 85 1.9 E 15 19 8 10 1006.3 1006.2 20.0
27/12:00am 27.0 30.1 24.1 84 2.0 E 15 19 8 10 1006.5 1006.4 20.0
 
Date/Time
EST
Temp
°C
App
Temp
°C
Dew
Point
Rel
Hum
%
Delta-T
°C
Wind Press
QNH
hPa
Press
MSL
hPa
Rain
since 9 am
mm
Dir
 
Spd
km/h
Gust
km/h
Spd
kts
Gust
kts
26/11:30pm 26.9 29.8 23.8 83 2.1 E 15 19 8 10 1006.8 1006.7 20.0
26/11:00pm 26.4 29.1 23.5 84 2.0 E 15 19 8 10 1007.4 1007.3 20.0
26/10:30pm 26.4 30.1 23.9 86 1.7 ENE 11 15 6 8 1007.1 1007.0 20.0
26/10:00pm 26.4 30.9 23.9 86 1.7 ESE 7 9 4 5 1006.8 1006.7 20.0
26/09:30pm 26.4 30.9 23.9 86 1.7 E 7 9 4 5 1006.5 1006.4 20.0
26/09:00pm 26.4 32.1 23.7 85 1.9 CALM 0 0 0 0 1006.0 1005.9 20.0
26/08:30pm 26.4 30.1 23.3 83 2.1 SE 9 13 5 7 1005.4 1005.3 20.0
26/08:00pm 26.1 30.0 23.0 83 2.1 SE 7 9 4 5 1004.9 1004.8 20.0
26/07:30pm 26.3 30.1 23.4 84 2.0 SE 9 9 5 5 1005.0 1004.9 20.0
26/07:00pm 27.1 30.8 22.3 75 3.2 WSW 6 9 3 5 1005.3 1005.2 19.8
26/06:30pm 27.2 28.5 22.6 76 3.1 WNW 20 26 11 14 1005.0 1004.9 19.8
26/06:00pm 27.2 29.9 22.8 77 3.0 WNW 13 17 7 9 1004.2 1004.1 19.8
26/05:30pm 26.6 29.3 22.9 80 2.5 NW 13 15 7 8 1004.1 1004.0 19.8
26/05:00pm 26.2 28.5 23.5 85 1.8 NW 17 20 9 11 1004.6 1004.5 19.6
26/04:30pm 25.3 29.1 23.5 90 1.2 N 9 13 5 7 1004.7 1004.6 19.6
26/04:00pm 24.9 29.1 23.1 90 1.2 WNW 6 11 3 6 1005.1 1005.0 19.6
26/03:30pm 24.7 28.6 22.9 90 1.2 SE 7 11 4 6 1005.8 1005.7 19.0
26/03:00pm 24.6 27.6 22.7 89 1.3 ESE 11 17 6 9 1006.7 1006.6 17.2
26/02:30pm 25.0 28.2 23.1 89 1.3 E 11 13 6 7 1006.7 1006.6 16.6
26/02:00pm 24.5 26.8 22.7 90 1.2 ENE 15 19 8 10 1006.4 1006.3 16.2
26/01:30pm 24.2 26.0 22.5 90 1.1 NNE 17 22 9 12 1006.5 1006.4 11.8
26/01:00pm 24.5 25.8 22.4 88 1.4 NNE 19 24 10 13 1007.0 1006.9 8.0
26/12:30pm 25.3 27.7 22.2 83 2.1 ENE 13 20 7 11 1007.1 1007.0 4.4
26/12:00pm 26.8 29.9 24.1 85 1.9 SSE 15 22 8 12 1007.1 1007.0 0.6
26/11:30am 28.4 32.0 23.1 73 3.6 WSW 9 17 5 9 1007.0 1006.9 0.0
26/11:00am 30.8 33.5 24.2 68 4.6 NW 17 20 9 11 1007.4 1007.3 0.0
26/10:30am 31.1 34.4 24.5 68 4.6 NNW 15 20 8 11 1007.5 1007.4 0.0
26/10:00am 31.0 34.1 24.1 66 4.8 NW 15 19 8 10 1007.9 1007.8 0.0
26/09:30am 30.5 34.0 24.2 69 4.4 NNW 13 19 7 10 1008.1 1008.0 0.0
26/09:00am 30.4 33.7 24.5 70 4.1 NNW 15 24 8 13 1008.0 1007.9 0.2
26/08:30am 29.6 33.3 25.1 77 3.2 N 15 20 8 11 1007.5 1007.4 0.2
26/08:00am 28.0 33.3 25.0 84 2.1 NE 6 7 3 4 1007.7 1007.6 0.2
26/07:30am 27.5 32.3 24.5 84 2.1 NE 7 9 4 5 1007.5 1007.4 0.2
26/07:00am 27.1 31.9 24.2 84 2.0 ENE 6 7 3 4 1007.5 1007.4 0.2
26/06:30am 27.0 31.9 24.3 85 1.9 NE 6 7 3 4 1007.0 1006.9 0.2
26/06:00am 26.8 31.0 24.1 85 1.9 ENE 9 11 5 6 1006.8 1006.7 0.2
26/05:30am 26.5 30.5 23.8 85 1.9 NNE 9 11 5 6 1006.9 1006.8 0.2
26/05:00am 26.4 30.0 23.7 85 1.9 NNE 11 13 6 7 1006.2 1006.1 0.2
26/04:30am 26.7 30.6 23.6 83 2.1 ENE 9 11 5 6 1005.9 1005.8 0.2
26/04:00am 26.8 30.8 23.7 83 2.1 E 9 9 5 5 1005.5 1005.4 0.2
26/03:30am 27.2 30.2 23.4 80 2.6 ESE 13 15 7 8 1005.7 1005.6 0.2
26/03:00am 26.8 31.4 23.1 80 2.5 SSE 4 7 2 4 1005.6 1005.5 0.2
26/02:30am 27.2 31.2 22.8 77 3.0 SSE 6 9 3 5 1006.3 1006.2 0.2
26/02:00am 27.4 30.6 23.0 77 3.0 SSE 11 24 6 13 1007.0 1006.9 0.2
26/01:30am 27.4 31.9 24.0 82 2.3 SSE 7 13 4 7 1007.4 1007.3 0.2
26/01:00am 27.1 31.8 24.0 83 2.1 S 6 7 3 4 1007.2 1007.1 0.2
26/12:30am 27.2 33.0 23.9 82 2.3 CALM 0 0 0 0 1007.3 1007.2 0.2
26/12:00am 27.9 32.5 24.1 80 2.6 NNW 7 11 4 6 1007.4 1007.3 0.2
 
Date/Time
EST
Temp
°C
App
Temp
°C
Dew
Point
Rel
Hum
%
Delta-T
°C
Wind Press
QNH
hPa
Press
MSL
hPa
Rain
since 9 am
mm
Dir
 
Spd
km/h
Gust
km/h
Spd
kts
Gust
kts
25/11:30pm 28.0 31.9 24.2 80 2.6 W 11 15 6 8 1007.7 1007.6 0.2
25/11:00pm 28.3 32.4 23.9 77 3.0 WSW 9 15 5 8 1007.7 1007.6 0.2
25/10:30pm 28.7 32.7 23.8 75 3.4 WSW 9 15 5 8 1007.4 1007.3 0.2
25/10:00pm 28.9 33.2 24.2 76 3.3 WSW 9 13 5 7 1007.0 1006.9 0.2
25/09:30pm 29.2 33.3 24.5 76 3.3 W 11 17 6 9 1007.0 1006.9 0.2
25/09:00pm 29.4 34.1 24.9 77 3.2 WSW 9 15 5 8 1007.3 1007.2 0.2
25/08:30pm 29.9 33.0 24.8 74 3.6 WNW 17 22 9 12 1007.4 1007.3 0.2
25/08:00pm 29.9 33.0 24.8 74 3.6 WNW 17 22 9 12 1007.4 1007.3 0.2
25/07:30pm 29.9 33.0 24.1 71 4.0 NW 15 19 8 10 1006.8 1006.7 0.2
25/07:00pm 30.2 33.1 23.9 69 4.4 NW 15 20 8 11 1005.9 1005.8 0.2
25/06:30pm 30.4 32.6 23.3 66 4.9 NNW 17 20 9 11 1005.7 1005.6 0.2
25/06:00pm 30.6 32.9 23.5 66 4.9 NNW 17 20 9 11 1005.0 1004.9 0.2
25/05:30pm 30.7 32.2 23.1 64 5.2 NNW 20 26 11 14 1004.9 1004.8 0.2
25/05:00pm 31.0 32.8 23.6 64 5.1 NW 20 24 11 13 1006.0 1005.9 0.2
25/04:30pm 31.8 33.3 24.4 65 5.2 NW 24 32 13 17 1005.8 1005.7 0.2
25/04:00pm 31.3 32.4 24.4 66 4.8 NW 26 32 14 17 1005.2 1005.1 0.2
25/03:30pm 32.1 33.1 24.7 65 5.2 NW 28 35 15 19 1005.8 1005.7 0.2
25/03:00pm 31.2 30.9 23.8 64 5.1 NNW 32 43 17 23 1006.2 1006.1 0.2
25/02:30pm 32.0 34.4 26.3 72 4.1 NNW 26 35 14 19 1006.2 1006.1 0.2
25/02:00pm 32.0 33.6 25.1 67 4.9 NNW 26 32 14 17 1006.4 1006.3 0.2
25/01:30pm 32.0 33.0 23.5 60 5.9 NW 24 30 13 16 1007.0 1006.9 0.2
25/01:00pm 31.2 32.5 24.1 66 5.0 NW 24 28 13 15 1007.7 1007.6 0.2
25/12:30pm 31.3 34.2 25.9 73 3.8 N 22 30 12 16 1007.9 1007.8 0.2
25/12:00pm 32.1 34.6 25.4 67 4.8 N 22 32 12 17 1008.0 1007.9 0.2
25/11:30am 31.9 34.3 25.2 67 4.7 N 22 30 12 16 1008.4 1008.3 0.2
25/11:00am 31.9 34.0 24.7 65 5.1 NNW 22 32 12 17 1008.6 1008.5 0.2
25/10:30am 31.6 33.6 25.2 69 4.5 NNW 24 30 13 16 1008.7 1008.6 0.2
25/10:00am 31.5 35.2 25.8 72 4.1 NNW 17 24 9 13 1009.0 1008.9 0.2
25/09:30am 31.0 34.6 25.6 73 3.8 NNW 17 22 9 12 1008.8 1008.7 0.2
25/09:00am 30.7 34.2 24.8 71 4.1 NNW 15 20 8 11 1008.9 1008.8 7.4
25/08:30am 30.5 33.4 24.4 70 4.3 NNW 17 20 9 11 1008.8 1008.7 7.4
25/08:00am 30.1 33.0 24.5 72 3.9 NNW 17 22 9 12 1008.2 1008.1 7.4
25/07:30am 29.8 32.3 24.4 73 3.8 NNW 19 24 10 13 1007.8 1007.7 7.4
25/07:00am 29.7 32.7 24.6 74 3.6 NNW 17 24 9 13 1007.4 1007.3 7.4
25/06:30am 29.2 32.0 24.3 75 3.4 NNW 17 24 9 13 1007.1 1007.0 7.4
25/06:00am 29.4 31.1 24.0 72 3.7 NNW 22 28 12 15 1006.6 1006.5 7.4
25/05:30am 29.2 31.5 24.1 74 3.5 NNW 19 24 10 13 1006.2 1006.1 7.4
25/05:00am 29.1 31.7 24.0 74 3.5 NNW 17 24 9 13 1006.1 1006.0 7.4
25/04:30am 29.1 31.3 24.0 74 3.5 NNW 19 26 10 14 1006.1 1006.0 7.4
25/04:00am 29.2 31.6 24.3 75 3.4 NNW 19 26 10 14 1006.1 1006.0 7.4
25/03:30am 29.2 32.2 24.7 77 3.1 NNW 17 26 9 14 1006.1 1006.0 7.4
25/03:00am 29.0 32.0 24.6 77 3.1 NNW 17 22 9 12 1006.1 1006.0 7.4
25/02:30am 29.1 32.1 24.6 76 3.1 N 17 24 9 13 1006.3 1006.2 7.4
25/02:00am 29.0 32.0 24.6 77 3.1 N 17 22 9 12 1006.3 1006.2 7.4
25/01:30am 28.8 32.6 24.1 76 3.3 N 11 17 6 9 1006.6 1006.5 7.4
25/01:00am 29.1 32.0 24.4 76 3.3 N 17 22 9 12 1006.9 1006.8 7.4
25/12:30am 29.1 32.0 23.8 73 3.7 N 15 20 8 11 1007.0 1006.9 7.4

Other Formats:

Comma delimited format used in spreadsheet applications
http://www.bom.gov.au/fwo/IDQ60801/IDQ60801.94254.axf

JavaScript Object Notation format (JSON) in row-major order
http://www.bom.gov.au/fwo/IDQ60801/IDQ60801.94254.json